CMA CGM Tuticorin — VRNY5 — position and weather

sailwx.info

Track history (hours):
 
Tides and Currents Weather Stations Pressure Air Temp Water Temp Dewpoint Dewpoint Depression Visibility Wind Speed Wind Dir Waves Ship Positions

CMA CGM Tuticorin

Last reported at 2018-Jul-15 06:16 UTC. Time now 2018-Jul-20 04:49 UTC.
Position N 23°25' E 117°49'.

Length 336 m; draft 13.5 m.

Type: Ship (hazmat cat A). MMSI: 477790500.

Date/timePositionNaut miles runAvg speedWind from/ knotsBaromVisibWave heightAir tempDewpointWater temp
2018-Jul-15 06:16N 23°25' E 117°49'413.5
2018-Jul-15 05:57N 23°28' E 117°52'613.3
2018-Jul-15 05:30N 23°33' E 117°55'1313.5
2018-Jul-15 04:33N 23°43' E 118°04'113.1
2018-Jul-15 04:28N 23°44' E 118°05'612.6
2018-Jul-15 04:00N 23°47' E 118°10'2714.9
2018-Jul-15 02:12N 24°06' E 118°31'418.4
2018-Jul-15 01:59N 24°08' E 118°34'1618.2
2018-Jul-15 01:05N 24°18' E 118°49'218.0
2018-Jul-15 01:00N 24°19' E 118°50'  
2018-Jul-12 14:21N 30°35' E 122°08'412.0
2018-Jul-12 14:00N 30°37' E 122°03'3 5.8
2018-Jul-12 13:30N 30°39' E 122°01'0 0.0
2018-Jul-12 12:54N 30°39' E 122°01'0 0.0
2018-Jul-12 12:27N 30°39' E 122°01'0 0.0
2018-Jul-12 11:51N 30°39' E 122°01'0 0.0
2018-Jul-12 11:27N 30°39' E 122°01'0 0.1
2018-Jul-12 10:57N 30°39' E 122°01'0 0.1
2018-Jul-12 10:27N 30°39' E 122°01'0 0.0
2018-Jul-12 09:57N 30°39' E 122°01'0 0.0
2018-Jul-12 09:27N 30°39' E 122°01'0 0.0
2018-Jul-12 09:00N 30°39' E 122°01'0 0.0
2018-Jul-12 08:27N 30°39' E 122°01'0 0.0
2018-Jul-12 07:51N 30°39' E 122°01'0 0.0
2018-Jul-12 07:27N 30°39' E 122°01'0 0.0
2018-Jul-12 06:51N 30°39' E 122°01'0 0.0
2018-Jul-12 06:27N 30°39' E 122°01'0 0.0
2018-Jul-12 06:00N 30°39' E 122°01'0 0.0
2018-Jul-12 05:30N 30°39' E 122°01'0 0.0
2018-Jul-12 05:00N 30°39' E 122°01'0 0.0
2018-Jul-12 04:30N 30°39' E 122°01'0 0.0
2018-Jul-12 03:54N 30°39' E 122°01'0 0.0
2018-Jul-12 03:24N 30°39' E 122°01'0 0.0
2018-Jul-12 03:00N 30°39' E 122°01'0 0.0
2018-Jul-12 02:27N 30°39' E 122°01'0 0.0
2018-Jul-12 01:57N 30°39' E 122°01'0 0.0
2018-Jul-12 01:30N 30°39' E 122°01'0 0.0
2018-Jul-12 00:57N 30°39' E 122°01'0 0.0
2018-Jul-12 00:27N 30°39' E 122°01'0 0.0
2018-Jul-11 23:57N 30°39' E 122°01'0 0.0
2018-Jul-11 23:27N 30°39' E 122°01'0 0.0
2018-Jul-11 22:45N 30°39' E 122°01'0 0.0
2018-Jul-11 22:30N 30°39' E 122°01'0 0.0
2018-Jul-11 22:00N 30°39' E 122°01'0 0.4
2018-Jul-11 21:29N 30°39' E 122°01'2 3.8
2018-Jul-11 21:00N 30°38' E 122°03'  
2018-Jul-07 13:41N 38°17' E 122°40'212.0
2018-Jul-07 13:30N 38°18' E 122°38'812.1
2018-Jul-07 12:52N 38°23' E 122°30'40 1.7
2018-Jul-06 12:53N 38°52' E 121°55'4 9.8
2018-Jul-06 12:30N 38°48' E 121°53'1 1.0
2018-Jul-06 12:00N 38°48' E 121°54'1 0.7
2018-Jul-06 10:49N 38°48' E 121°53'3 9.9
2018-Jul-06 10:30N 38°45' E 121°50'1 2.2
2018-Jul-06 10:00N 38°45' E 121°49'1 2.0
2018-Jul-06 09:28N 38°46' E 121°50'1 1.2
2018-Jul-06 08:59N 38°46' E 121°51'4 9.0
2018-Jul-06 08:30N 38°42' E 121°49'612.4
2018-Jul-06 08:00N 38°36' E 121°45'912.5
2018-Jul-06 07:19N 38°30' E 121°37'2611.9
2018-Jul-06 05:08N 38°29' E 121°04'1 9.6
2018-Jul-06 05:00N 38°30' E 121°03'3312.0
2018-Jul-06 02:17N 38°38' E 120°22'413.2
2018-Jul-06 01:59N 38°38' E 120°17'613.3
2018-Jul-06 01:30N 38°39' E 120°09'613.0
2018-Jul-06 01:00N 38°41' E 120°01'913.2
2018-Jul-06 00:20N 38°42' E 119°50'412.7
2018-Jul-06 00:00N 38°42' E 119°45'713.3
2018-Jul-05 23:30N 38°43' E 119°36'813.1
2018-Jul-05 22:51N 38°44' E 119°25'  
Track history (hours):
 
Tides and Currents Weather Stations Pressure Air Temp Water Temp Dewpoint Dewpoint Depression Visibility Wind Speed Wind Dir Waves Ship Positions

CMA CGM Tuticorin

Last reported at 2018-Jul-15 06:16 UTC. Time now 2018-Jul-20 04:49 UTC.
Position N 23°25' E 117°49'.

Length 336 m; draft 13.5 m.

Type: Ship (hazmat cat A). MMSI: 477790500.

Date/timePositionNaut miles runAvg speedWind from/ knotsBaromVisibWave heightAir tempDewpointWater temp
2018-Jul-15 06:16N 23°25' E 117°49'413.5
2018-Jul-15 05:57N 23°28' E 117°52'613.3
2018-Jul-15 05:30N 23°33' E 117°55'1313.5
2018-Jul-15 04:33N 23°43' E 118°04'113.1
2018-Jul-15 04:28N 23°44' E 118°05'612.6
2018-Jul-15 04:00N 23°47' E 118°10'2714.9
2018-Jul-15 02:12N 24°06' E 118°31'418.4
2018-Jul-15 01:59N 24°08' E 118°34'1618.2
2018-Jul-15 01:05N 24°18' E 118°49'218.0
2018-Jul-15 01:00N 24°19' E 118°50'  
2018-Jul-12 14:21N 30°35' E 122°08'412.0
2018-Jul-12 14:00N 30°37' E 122°03'3 5.8
2018-Jul-12 13:30N 30°39' E 122°01'0 0.0
2018-Jul-12 12:54N 30°39' E 122°01'0 0.0
2018-Jul-12 12:27N 30°39' E 122°01'0 0.0
2018-Jul-12 11:51N 30°39' E 122°01'0 0.0
2018-Jul-12 11:27N 30°39' E 122°01'0 0.1
2018-Jul-12 10:57N 30°39' E 122°01'0 0.1
2018-Jul-12 10:27N 30°39' E 122°01'0 0.0
2018-Jul-12 09:57N 30°39' E 122°01'0 0.0
2018-Jul-12 09:27N 30°39' E 122°01'0 0.0
2018-Jul-12 09:00N 30°39' E 122°01'0 0.0
2018-Jul-12 08:27N 30°39' E 122°01'0 0.0
2018-Jul-12 07:51N 30°39' E 122°01'0 0.0
2018-Jul-12 07:27N 30°39' E 122°01'0 0.0
2018-Jul-12 06:51N 30°39' E 122°01'0 0.0
2018-Jul-12 06:27N 30°39' E 122°01'0 0.0
2018-Jul-12 06:00N 30°39' E 122°01'0 0.0
2018-Jul-12 05:30N 30°39' E 122°01'0 0.0
2018-Jul-12 05:00N 30°39' E 122°01'0 0.0
2018-Jul-12 04:30N 30°39' E 122°01'0 0.0
2018-Jul-12 03:54N 30°39' E 122°01'0 0.0
2018-Jul-12 03:24N 30°39' E 122°01'0 0.0
2018-Jul-12 03:00N 30°39' E 122°01'0 0.0
2018-Jul-12 02:27N 30°39' E 122°01'0 0.0
2018-Jul-12 01:57N 30°39' E 122°01'0 0.0
2018-Jul-12 01:30N 30°39' E 122°01'0 0.0
2018-Jul-12 00:57N 30°39' E 122°01'0 0.0
2018-Jul-12 00:27N 30°39' E 122°01'0 0.0
2018-Jul-11 23:57N 30°39' E 122°01'0 0.0
2018-Jul-11 23:27N 30°39' E 122°01'0 0.0
2018-Jul-11 22:45N 30°39' E 122°01'0 0.0
2018-Jul-11 22:30N 30°39' E 122°01'0 0.0
2018-Jul-11 22:00N 30°39' E 122°01'0 0.4
2018-Jul-11 21:29N 30°39' E 122°01'2 3.8
2018-Jul-11 21:00N 30°38' E 122°03'  
2018-Jul-07 13:41N 38°17' E 122°40'212.0
2018-Jul-07 13:30N 38°18' E 122°38'812.1
2018-Jul-07 12:52N 38°23' E 122°30'40 1.7
2018-Jul-06 12:53N 38°52' E 121°55'4 9.8
2018-Jul-06 12:30N 38°48' E 121°53'1 1.0
2018-Jul-06 12:00N 38°48' E 121°54'1 0.7
2018-Jul-06 10:49N 38°48' E 121°53'3 9.9
2018-Jul-06 10:30N 38°45' E 121°50'1 2.2
2018-Jul-06 10:00N 38°45' E 121°49'1 2.0
2018-Jul-06 09:28N 38°46' E 121°50'1 1.2
2018-Jul-06 08:59N 38°46' E 121°51'4 9.0
2018-Jul-06 08:30N 38°42' E 121°49'612.4
2018-Jul-06 08:00N 38°36' E 121°45'912.5
2018-Jul-06 07:19N 38°30' E 121°37'2611.9
2018-Jul-06 05:08N 38°29' E 121°04'1 9.6
2018-Jul-06 05:00N 38°30' E 121°03'3312.0
2018-Jul-06 02:17N 38°38' E 120°22'413.2
2018-Jul-06 01:59N 38°38' E 120°17'613.3
2018-Jul-06 01:30N 38°39' E 120°09'613.0
2018-Jul-06 01:00N 38°41' E 120°01'913.2
2018-Jul-06 00:20N 38°42' E 119°50'412.7
2018-Jul-06 00:00N 38°42' E 119°45'713.3
2018-Jul-05 23:30N 38°43' E 119°36'813.1
2018-Jul-05 22:51N 38°44' E 119°25'  

Dump ship's entire track history